Time;durP1;ratioP1;P1;durP2;ratioP2;P2;SDS_P1;SDS_P2;PMS_P1;PMS_P2;Temp;Humidity;BMP_temperature;BMP_pressure;BME280_temperature;BME280_humidity;BME280_pressure;Samples;Min_cycle;Max_cycle;Signal;HPM_P1;HPM_P2
2024/02/08 00:00:14;;;;;;;21.13;7.57;;;;;;;-146.27;88.54;44447.97;5062654;28;20374;-73
2024/02/08 00:02:41;;;;;;;15.73;7.00;;;;;;;-146.27;88.40;44440.00;5067099;28;20488;-72
2024/02/08 00:05:08;;;;;;;13.65;6.63;;;;;;;-146.27;89.12;44414.13;5067521;28;20091;-72
2024/02/08 00:07:33;;;;;;;24.85;8.48;;;;;;;-146.27;89.48;44390.25;5070238;28;20040;-73
2024/02/08 00:09:58;;;;;;;17.08;7.00;;;;;;;-146.27;89.62;44358.44;5069528;28;20028;-73
2024/02/08 00:12:25;;;;;;;15.45;6.85;;;;;;;-146.27;89.96;44274.84;5069516;28;20028;-72
2024/02/08 00:14:50;;;;;;;16.88;6.93;;;;;;;-146.27;89.33;44302.72;5069272;28;20033;-73
2024/02/08 00:17:20;;;;;;;15.45;6.78;;;;;;;-146.27;89.02;44362.41;5066344;28;20449;-73
2024/02/08 00:19:51;;;;;;;24.15;7.28;;;;;;;-146.27;88.78;44388.28;5069433;28;20028;-72
2024/02/08 00:22:20;;;;;;;15.60;6.53;;;;;;;-146.27;89.45;44358.44;5068310;28;20037;-73
2024/02/08 00:24:46;;;;;;;14.40;7.43;;;;;;;-146.27;89.45;44346.50;5067378;28;20500;-72
2024/02/08 00:27:11;;;;;;;14.23;7.07;;;;;;;-146.27;89.58;44330.56;5068132;28;20052;-73
2024/02/08 00:29:41;;;;;;;18.42;7.25;;;;;;;-146.27;88.83;44388.28;5059224;28;20081;-73
2024/02/08 00:32:08;;;;;;;17.00;7.22;;;;;;;-146.27;88.96;44358.44;5058326;28;20499;-73
2024/02/08 00:34:34;;;;;;;14.38;6.38;;;;;;;-146.27;88.56;44410.16;5065405;28;20507;-73
2024/02/08 00:36:59;;;;;;;15.98;6.68;;;;;;;-146.27;88.41;44455.94;5067594;28;20531;-73
2024/02/08 00:39:25;;;;;;;21.00;7.90;;;;;;;-146.27;88.56;44428.06;5068385;28;20028;-73
2024/02/08 00:41:50;;;;;;;13.88;6.68;;;;;;;-146.27;88.53;44420.09;5067463;28;20460;-73
2024/02/08 00:44:17;;;;;;;15.60;7.20;;;;;;;-146.27;89.14;44390.25;5067342;28;20494;-73
2024/02/08 00:46:42;;;;;;;16.70;7.93;;;;;;;-146.27;89.86;44340.53;5065604;28;20587;-73
2024/02/08 00:49:08;;;;;;;28.17;7.80;;;;;;;-146.27;89.64;44282.81;5068876;28;20103;-73
2024/02/08 00:51:34;;;;;;;19.60;8.27;;;;;;;-146.27;89.97;44262.91;5066223;28;20028;-72
2024/02/08 00:54:00;;;;;;;18.02;7.68;;;;;;;-146.27;90.42;44235.06;5068701;28;20031;-73
2024/02/08 00:56:26;;;;;;;17.45;7.70;;;;;;;-146.27;90.13;44227.09;5063636;28;20025;-73
2024/02/08 00:58:51;;;;;;;18.02;7.70;;;;;;;-146.27;90.07;44159.47;5060466;28;20119;-73
2024/02/08 01:01:17;;;;;;;21.45;7.97;;;;;;;-146.27;89.60;44241.03;5067516;28;20063;-73
2024/02/08 01:03:46;;;;;;;13.60;8.10;;;;;;;-146.27;89.84;44175.38;5065527;28;20035;-73
2024/02/08 01:06:12;;;;;;;21.67;8.20;;;;;;;-146.27;89.56;44233.06;5068705;28;20102;-73
2024/02/08 01:08:37;;;;;;;21.00;10.55;;;;;;;-146.27;89.38;44252.97;5067847;28;20085;-73
2024/02/08 01:11:03;;;;;;;22.35;10.20;;;;;;;-146.27;89.78;44193.28;5068821;28;20411;-73
2024/02/08 01:13:31;;;;;;;34.22;13.73;;;;;;;-146.27;90.02;44183.34;5067480;28;20059;-73
2024/02/08 01:16:00;;;;;;;81.45;29.50;;;;;;;-146.27;89.97;44165.44;5066377;28;20035;-72
2024/02/08 01:18:25;;;;;;;40.78;15.60;;;;;;;-146.27;90.39;44063.97;5068416;28;20032;-72
2024/02/08 01:20:51;;;;;;;64.93;25.35;;;;;;;-146.27;89.75;44159.47;5069402;28;20549;-72
2024/02/08 01:23:17;;;;;;;64.80;26.48;;;;;;;-146.27;90.29;44083.84;5069651;28;20035;-73
2024/02/08 01:25:47;;;;;;;56.70;24.42;;;;;;;-146.27;89.67;44181.34;5068999;28;20021;-72
2024/02/08 01:28:13;;;;;;;45.70;20.80;;;;;;;-146.27;90.59;44050.03;5067380;28;20070;-73
2024/02/08 01:30:38;;;;;;;55.88;24.40;;;;;;;-146.27;89.86;44131.59;5064594;28;20435;-73
2024/02/08 01:33:06;;;;;;;59.85;26.55;;;;;;;-146.27;89.45;44139.56;5064066;28;20024;-73
2024/02/08 01:35:32;;;;;;;74.70;30.55;;;;;;;-146.27;89.57;44135.59;5069405;28;20052;-73
2024/02/08 01:37:59;;;;;;;67.85;30.60;;;;;;;-146.27;89.36;44171.41;5063800;28;20025;-73
2024/02/08 01:40:26;;;;;;;66.63;29.95;;;;;;;-146.27;89.81;44159.47;5066482;28;20041;-71
2024/02/08 01:42:57;;;;;;;72.70;27.50;;;;;;;-146.27;89.75;44135.59;5069051;28;20024;-71
2024/02/08 01:45:34;;;;;;;60.10;27.73;;;;;;;-146.27;89.75;44139.56;5068816;28;20044;-73
2024/02/08 01:48:01;;;;;;;61.67;27.65;;;;;;;-146.27;90.62;44042.06;5054572;28;20143;-72
2024/02/08 01:50:30;;;;;;;67.18;29.33;;;;;;;-146.27;91.21;43920.72;5068955;28;20020;-74
2024/02/08 01:52:59;;;;;;;66.78;30.33;;;;;;;-146.27;90.15;44024.16;5064919;28;20024;-72
2024/02/08 01:55:25;;;;;;;71.18;29.80;;;;;;;-146.27;90.32;44028.16;5067622;28;20492;-71
2024/02/08 01:57:51;;;;;;;71.78;31.30;;;;;;;-146.27;89.86;44081.88;5068165;28;20078;-72
2024/02/08 02:00:17;;;;;;;65.53;30.95;;;;;;;-146.27;89.75;44048.03;5067887;28;20036;-72
2024/02/08 02:02:43;;;;;;;64.00;28.95;;;;;;;-146.27;89.53;44105.75;5065256;28;20036;-73
2024/02/08 02:05:17;;;;;;;63.20;28.38;;;;;;;-146.27;89.46;44103.75;5067573;28;20031;-72
2024/02/08 02:07:48;;;;;;;73.97;31.50;;;;;;;-146.27;90.18;44050.03;5066855;28;20107;-73
2024/02/08 02:10:15;;;;;;;73.40;28.75;;;;;;;-146.27;90.32;43992.34;5069620;28;20078;-73
2024/02/08 02:12:42;;;;;;;76.22;32.67;;;;;;;-146.27;90.00;44058.00;5073766;28;20055;-72
2024/02/08 02:15:10;;;;;;;74.90;34.33;;;;;;;-146.27;90.33;44067.94;5068037;28;20032;-73
2024/02/08 02:17:35;;;;;;;72.25;33.60;;;;;;;-146.27;89.95;44052.03;5071654;28;20089;-72
2024/02/08 02:20:05;;;;;;;76.10;34.10;;;;;;;-146.27;90.28;44016.22;5072978;28;20036;-73
2024/02/08 02:22:34;;;;;;;67.57;31.60;;;;;;;-146.27;91.45;43902.81;5068675;28;20070;-73
2024/02/08 02:25:01;;;;;;;65.22;29.92;;;;;;;-146.27;90.36;43972.44;5069648;28;20085;-72
2024/02/08 02:27:27;;;;;;;65.32;29.63;;;;;;;-146.27;90.30;43994.31;5071650;28;20021;-72
2024/02/08 02:29:54;;;;;;;75.65;31.23;;;;;;;-146.27;89.97;44034.13;5071815;28;20024;-73
2024/02/08 02:32:21;;;;;;;64.18;29.92;;;;;;;-146.27;90.04;43988.34;5072531;28;20028;-72
2024/02/08 02:34:53;;;;;;;69.85;29.30;;;;;;;-146.27;89.88;44016.22;5073583;28;20044;-73
2024/02/08 02:37:18;;;;;;;75.55;28.23;;;;;;;-146.27;89.96;44024.16;5071864;28;20024;-72
2024/02/08 02:39:45;;;;;;;67.75;31.13;;;;;;;-146.27;90.10;43996.31;5070599;28;20035;-72
2024/02/08 02:42:11;;;;;;;71.80;30.05;;;;;;;-146.27;89.88;44020.19;5072327;28;20032;-73
2024/02/08 02:44:36;;;;;;;61.55;27.50;;;;;;;-146.27;89.94;44044.06;5069737;28;20027;-72
2024/02/08 02:47:04;;;;;;;52.20;27.02;;;;;;;-146.27;90.53;43966.47;5070144;28;20051;-72
2024/02/08 02:49:30;;;;;;;61.63;27.35;;;;;;;-146.27;90.10;43976.41;5071626;28;20404;-73
2024/02/08 02:51:59;;;;;;;67.22;30.50;;;;;;;-146.27;89.96;44020.19;5070901;28;20028;-72
2024/02/08 02:54:29;;;;;;;59.97;26.15;;;;;;;-146.27;90.02;44028.16;5062088;28;20118;-72
2024/02/08 02:56:56;;;;;;;50.65;23.98;;;;;;;-146.27;89.80;44040.09;5072969;28;20023;-72
2024/02/08 02:59:26;;;;;;;50.45;21.55;;;;;;;-146.27;89.86;44040.09;5069789;28;20626;-72
2024/02/08 03:01:55;;;;;;;59.50;26.70;;;;;;;-146.27;89.72;44024.16;5070147;28;20042;-72
2024/02/08 03:04:21;;;;;;;65.57;29.05;;;;;;;-146.27;90.69;43960.50;5068664;28;20024;-72
2024/02/08 03:06:48;;;;;;;65.18;28.90;;;;;;;-146.27;90.40;43908.78;5072319;28;20031;-72
2024/02/08 03:09:17;;;;;;;62.40;28.10;;;;;;;-146.27;90.36;43956.53;5064391;28;20498;-72
2024/02/08 03:11:45;;;;;;;60.85;24.42;;;;;;;-146.27;90.42;43946.59;5070174;28;20024;-72
2024/02/08 03:14:10;;;;;;;43.78;22.60;;;;;;;-146.27;90.34;43956.53;5071579;28;20029;-72
2024/02/08 03:16:36;;;;;;;34.38;18.77;;;;;;;-146.27;89.86;43976.41;5071537;28;20024;-72
2024/02/08 03:19:07;;;;;;;43.08;18.65;;;;;;;-146.27;89.91;43996.31;5070411;28;20021;-72
2024/02/08 03:21:35;;;;;;;45.17;17.63;;;;;;;-146.27;89.93;43948.56;5071874;28;20066;-72
2024/02/08 03:24:07;;;;;;;28.00;13.43;;;;;;;-146.27;90.50;43948.56;5071256;28;20028;-72
2024/02/08 03:26:33;;;;;;;36.08;12.68;;;;;;;-146.27;90.18;43988.34;5069646;28;20379;-72
2024/02/08 03:28:59;;;;;;;23.48;13.82;;;;;;;-146.27;90.16;43964.50;5068967;28;20151;-72
2024/02/08 03:31:26;;;;;;;35.00;12.85;;;;;;;-146.27;89.71;43992.34;5068820;28;20060;-73
2024/02/08 03:33:53;;;;;;;25.65;11.68;;;;;;;-146.27;89.72;44002.28;5069301;28;20055;-72
2024/02/08 03:36:23;;;;;;;27.65;11.75;;;;;;;-146.27;89.93;43984.38;5070148;28;20036;-72
2024/02/08 03:38:52;;;;;;;39.63;12.27;;;;;;;-146.27;89.42;44016.22;5069760;28;20081;-73
2024/02/08 03:41:17;;;;;;;26.88;10.90;;;;;;;-146.27;90.20;43962.50;5059419;28;20464;-73
2024/02/08 03:43:47;;;;;;;32.42;13.75;;;;;;;-146.27;89.58;43972.44;5070712;28;20035;-71
2024/02/08 03:46:13;;;;;;;39.20;16.23;;;;;;;-146.27;89.10;44016.22;5069185;28;20091;-71
2024/02/08 03:48:40;;;;;;;36.25;16.60;;;;;;;-146.27;89.69;43986.38;5067244;28;20032;-73
2024/02/08 03:51:05;;;;;;;30.00;14.32;;;;;;;-146.27;90.13;43948.56;5070085;28;20107;-72
2024/02/08 03:53:34;;;;;;;33.88;16.15;;;;;;;-146.27;89.95;43956.53;5070390;28;20115;-73
2024/02/08 03:55:59;;;;;;;42.67;14.00;;;;;;;-146.27;89.90;43986.38;5066146;28;20056;-72
2024/02/08 03:58:25;;;;;;;30.60;12.65;;;;;;;-146.27;90.62;43882.91;5069005;28;20056;-72
2024/02/08 04:00:53;;;;;;;33.50;12.48;;;;;;;-146.27;90.24;43896.84;5063173;28;20029;-73
2024/02/08 04:03:43;;;;;;;25.95;12.93;;;;;;;-146.27;90.76;43880.94;5066065;28;20035;-74
2024/02/08 04:06:26;;;;;;;32.97;11.80;;;;;;;-146.27;91.32;43789.41;5068556;28;20455;-73
2024/02/08 04:09:06;;;;;;;25.20;11.05;;;;;;;-146.27;91.17;43765.53;5064812;28;20055;-73
2024/02/08 04:55:24;;;;;;;22.00;9.07;;;;;;;-146.27;91.75;43747.63;5066004;28;20557;-72
2024/02/08 04:57:49;;;;;;;19.10;8.48;;;;;;;-146.27;90.37;43857.06;5068544;28;20020;-73
2024/02/08 05:00:14;;;;;;;16.77;8.32;;;;;;;-146.27;90.49;43870.97;5058737;28;20032;-72
2024/02/08 05:02:40;;;;;;;27.45;8.82;;;;;;;-146.27;90.50;43892.88;5067684;28;20476;-72
2024/02/08 05:05:07;;;;;;;19.13;8.40;;;;;;;-146.27;90.77;43853.06;5066679;28;20060;-73
2024/02/08 05:07:32;;;;;;;18.05;9.02;;;;;;;-146.27;90.26;43876.94;5067485;28;20017;-73
2024/02/08 05:09:58;;;;;;;15.13;8.63;;;;;;;-146.27;90.56;43876.94;5068902;28;20466;-73
2024/02/08 05:12:24;;;;;;;25.98;9.57;;;;;;;-146.27;90.48;43835.16;5068765;28;20024;-72
2024/02/08 05:14:49;;;;;;;17.65;9.65;;;;;;;-146.27;90.46;43853.06;5062818;28;20032;-73
2024/02/08 05:17:15;;;;;;;20.42;8.85;;;;;;;-146.27;90.04;43870.97;5063736;28;20023;-73
2024/02/08 05:19:43;;;;;;;14.95;9.27;;;;;;;-146.27;90.55;43831.19;5055552;28;20020;-73
2024/02/08 05:22:11;;;;;;;19.80;10.07;;;;;;;-146.27;90.55;43841.13;5065507;28;20219;-73
2024/02/08 05:24:37;;;;;;;25.05;9.75;;;;;;;-146.27;90.40;43857.06;5068617;28;20024;-73
2024/02/08 05:27:02;;;;;;;16.42;8.63;;;;;;;-146.27;90.67;43849.09;5066545;28;20435;-73
2024/02/08 05:29:28;;;;;;;24.00;9.88;;;;;;;-146.27;90.24;43849.09;5065346;28;20035;-73
2024/02/08 05:31:54;;;;;;;21.55;9.45;;;;;;;-146.27;90.93;43773.50;5069236;28;20491;-73
2024/02/08 05:34:21;;;;;;;21.58;9.88;;;;;;;-146.27;90.97;43785.44;5068188;28;20059;-73
2024/02/08 05:36:48;;;;;;;23.08;9.93;;;;;;;-146.27;90.34;43783.44;5064355;28;20423;-72
2024/02/08 05:39:23;;;;;;;21.05;10.00;;;;;;;-146.27;90.58;43801.34;5069479;28;20024;-73
2024/02/08 05:41:53;;;;;;;18.50;10.00;;;;;;;-146.27;90.45;43809.31;5067949;28;20374;-73
2024/02/08 05:44:20;;;;;;;24.63;10.25;;;;;;;-146.27;90.51;43775.50;5050552;28;20389;-71
2024/02/08 05:46:47;;;;;;;23.88;9.98;;;;;;;-146.27;90.21;43815.28;5057520;28;20020;-72
2024/02/08 05:49:14;;;;;;;20.58;9.73;;;;;;;-146.27;90.50;43795.38;5064678;28;20476;-71
2024/02/08 05:51:51;;;;;;;15.30;8.65;;;;;;;-146.27;90.11;43791.41;5062794;28;20027;-73
2024/02/08 05:54:20;;;;;;;21.77;8.77;;;;;;;-146.27;89.88;43815.28;5062987;28;20063;-72
2024/02/08 05:56:48;;;;;;;17.27;8.27;;;;;;;-146.27;90.12;43813.28;5063695;28;20524;-72
2024/02/08 05:59:18;;;;;;;19.40;9.73;;;;;;;-146.27;90.34;43793.41;5066377;28;20118;-73
2024/02/08 06:01:44;;;;;;;18.42;8.90;;;;;;;-146.27;89.84;43855.06;5061080;28;20075;-73
2024/02/08 06:04:14;;;;;;;31.35;9.68;;;;;;;-146.27;90.35;43841.13;5056336;28;20039;-72
2024/02/08 06:06:52;;;;;;;26.83;10.15;;;;;;;-146.27;89.97;43853.06;5066873;28;20029;-72
2024/02/08 06:12:10;;;;;;;24.88;9.63;;;;;;;-146.27;89.55;43896.84;5057272;28;20089;-73
2024/02/08 06:14:38;;;;;;;31.00;10.60;;;;;;;-146.27;89.14;43932.66;5063578;28;20032;-73
2024/02/08 06:17:14;;;;;;;26.55;9.85;;;;;;;-146.27;89.75;43916.75;5055610;28;20075;-73
2024/02/08 06:19:50;;;;;;;26.48;9.23;;;;;;;-146.27;89.78;43882.91;5057521;28;20039;-72
2024/02/08 06:22:20;;;;;;;19.98;10.85;;;;;;;-146.27;89.22;43900.81;5058805;28;20091;-72
2024/02/08 06:24:49;;;;;;;22.58;9.23;;;;;;;-146.27;89.40;43904.81;5068259;28;20051;-72
2024/02/08 06:27:14;;;;;;;22.52;8.63;;;;;;;-146.27;89.34;43940.63;5067168;28;20100;-72
2024/02/08 06:29:49;;;;;;;20.88;8.70;;;;;;;-146.27;88.91;43936.63;5068650;28;20477;-73
2024/02/08 06:32:33;;;;;;;21.48;8.13;;;;;;;-146.27;88.91;43948.56;5057774;28;20029;-73
2024/02/08 06:35:06;;;;;;;;;;;;;;;-146.27;88.75;43988.34;5069938;28;20041;-73
2024/02/08 06:37:45;;;;;;;28.67;8.65;;;;;;;-146.27;89.00;43994.31;5069545;28;19912;-73
2024/02/08 06:40:22;;;;;;;16.90;8.07;;;;;;;-146.27;89.18;43956.53;5068297;28;20033;-72
2024/02/08 06:48:48;;;;;;;25.95;9.80;;;;;;;-146.27;89.21;43944.59;5059046;28;20610;-72
2024/02/08 07:37:46;;;;;;;36.33;11.00;;;;;;;-146.27;88.51;44077.88;5071465;28;19958;-72
2024/02/08 07:40:23;;;;;;;35.53;11.10;;;;;;;-146.27;88.91;44105.75;5072427;28;20411;-72
2024/02/08 07:45:51;;;;;;;32.00;10.25;;;;;;;-146.27;88.56;44163.44;5071077;28;20082;-72
2024/02/08 07:51:03;;;;;;;;;;;;;;;-146.27;88.02;44187.31;5072143;28;20110;-72
2024/02/08 07:59:06;;;;;;;34.92;11.10;;;;;;;-146.27;88.13;44314.66;5092819;28;20035;-73
2024/02/08 08:01:38;;;;;;;33.13;9.43;;;;;;;-146.27;87.84;44300.72;5075139;28;20024;-72
2024/02/08 08:04:08;;;;;;;24.15;8.35;;;;;;;-146.27;87.56;44326.59;5070125;28;20105;-71
2024/02/08 08:06:46;;;;;;;32.95;10.48;;;;;;;-146.27;87.43;44364.41;5071844;28;20036;-71
2024/02/08 08:09:18;;;;;;;27.48;9.15;;;;;;;-146.27;87.35;44404.19;5071297;28;20369;-71
2024/02/08 08:11:51;;;;;;;34.13;9.05;;;;;;;-146.27;87.14;44422.09;5071251;28;20104;-71
2024/02/08 08:19:38;;;;;;;20.10;8.30;;;;;;;-146.27;86.66;44517.59;5071150;28;20484;-70
2024/02/08 08:22:10;;;;;;;26.95;7.93;;;;;;;-146.27;86.37;44525.56;5070822;28;20078;-71
2024/02/08 08:25:00;;;;;;;26.70;7.90;;;;;;;-146.27;86.33;44529.53;5071750;28;20032;-71
2024/02/08 08:27:26;;;;;;;20.52;6.85;;;;;;;-146.27;86.33;44571.34;5071410;28;20064;-71
2024/02/08 08:29:58;;;;;;;17.98;6.68;;;;;;;-146.27;86.26;44573.31;5071581;28;20511;-71
2024/02/08 08:37:44;;;;;;;19.63;5.88;;;;;;;-146.27;85.95;44648.94;5071771;28;20094;-71
2024/02/08 08:42:58;;;;;;;20.17;5.25;;;;;;;-146.27;85.25;44672.81;5085289;28;20097;-71
2024/02/08 08:45:24;;;;;;;18.45;5.95;;;;;;;-146.27;85.24;44712.59;5091587;28;20024;-71
2024/02/08 08:48:00;;;;;;;18.90;4.97;;;;;;;-146.27;85.19;44720.56;5071275;28;20562;-71
2024/02/08 08:50:30;;;;;;;16.75;4.72;;;;;;;-146.27;84.89;44746.44;5070246;28;20020;-71
2024/02/08 08:52:58;;;;;;;21.42;5.13;;;;;;;-146.27;84.83;44784.25;5069996;28;20476;-71
2024/02/08 08:55:24;;;;;;;23.92;5.88;;;;;;;-146.27;84.04;44788.22;5071222;28;20027;-71
2024/02/08 08:58:00;;;;;;;21.40;5.28;;;;;;;-146.27;84.06;44828.03;5070069;28;20396;-71
2024/02/08 09:00:32;;;;;;;21.85;5.57;;;;;;;-146.27;84.10;44818.06;5070062;28;20020;-72
2024/02/08 09:03:00;;;;;;;16.63;5.13;;;;;;;-146.27;83.57;44859.88;5069758;28;20016;-71
2024/02/08 09:05:31;;;;;;;21.45;4.50;;;;;;;-146.27;83.18;44873.78;5069461;28;20103;-73
2024/02/08 09:08:00;;;;;;;16.88;5.07;;;;;;;-146.27;83.06;44899.66;5070119;28;20440;-72
2024/02/08 09:10:34;;;;;;;17.73;5.53;;;;;;;-146.27;83.03;44935.47;5070853;28;20031;-71
2024/02/08 09:13:00;;;;;;;28.63;4.75;;;;;;;-146.27;82.82;44933.50;5075420;28;20020;-72
2024/02/08 09:15:26;;;;;;;13.85;4.25;;;;;;;-146.27;83.01;44911.59;5090889;28;20388;-72
2024/02/08 09:17:53;;;;;;;22.20;5.05;;;;;;;-146.27;82.79;44981.25;5090797;28;20024;-73
2024/02/08 09:20:20;;;;;;;19.65;3.67;;;;;;;-146.27;82.80;44939.47;5080747;28;20024;-73
2024/02/08 09:22:52;;;;;;;16.90;3.88;;;;;;;-146.27;83.17;44927.53;5073171;28;20269;-73
2024/02/08 09:25:22;;;;;;;17.17;4.28;;;;;;;-146.27;82.81;44959.38;5087791;28;20300;-72
2024/02/08 09:27:53;;;;;;;20.15;3.85;;;;;;;-146.27;82.44;44971.31;5088700;28;20527;-74
2024/02/08 09:30:37;;;;;;;17.40;4.10;;;;;;;-146.27;82.55;44987.22;5083488;28;20024;-73
2024/02/08 09:33:14;;;;;;;13.25;4.20;;;;;;;-146.27;82.43;45023.03;5084860;28;20041;-75
2024/02/08 09:35:42;;;;;;;17.27;4.18;;;;;;;-146.27;82.16;45031.00;5081782;28;20439;-72
2024/02/08 09:38:09;;;;;;;18.65;4.32;;;;;;;-146.27;82.12;45044.94;5068085;28;20029;-72
2024/02/08 09:40:45;;;;;;;24.13;4.47;;;;;;;-146.27;82.24;45031.00;5068064;28;20071;-72
2024/02/08 09:43:17;;;;;;;19.48;4.43;;;;;;;-146.27;82.20;45003.16;5073057;28;20028;-72
2024/02/08 09:46:01;;;;;;;18.77;4.43;;;;;;;-146.27;82.36;45023.03;5076970;28;20095;-72
2024/02/08 09:48:36;;;;;;;14.63;4.05;;;;;;;-146.27;82.66;45052.91;5069923;28;20043;-72
2024/02/08 09:51:11;;;;;;;12.88;3.80;;;;;;;-146.27;82.60;45027.03;5069666;28;20020;-72
2024/02/08 09:53:40;;;;;;;8.57;3.80;;;;;;;-146.27;82.75;45025.03;5077411;28;20383;-73
2024/02/08 09:56:25;;;;;;;18.80;5.45;;;;;;;-146.27;83.74;45007.13;5087967;28;20024;-74
2024/02/08 09:58:58;;;;;;;12.52;3.63;;;;;;;-146.27;83.44;44967.31;5087107;28;20028;-72
2024/02/08 10:01:42;;;;;;;16.80;4.27;;;;;;;-146.27;83.35;45003.16;5082647;28;20521;-74
2024/02/08 10:04:16;;;;;;;15.27;2.95;;;;;;;-146.27;83.40;45003.16;5070016;28;20024;-72
2024/02/08 10:07:05;;;;;;;;;;;;;;;-146.27;83.21;45001.16;5070342;28;20020;-71
2024/02/08 10:09:40;;;;;;;22.13;4.47;;;;;;;-146.27;83.39;45046.94;5069943;28;19998;-73
2024/02/08 10:12:08;;;;;;;13.52;3.45;;;;;;;-146.27;83.59;45025.03;5080848;28;20085;-72
2024/02/08 10:14:41;;;;;;;19.35;3.92;;;;;;;-146.27;83.70;45017.06;5076950;28;20024;-72
2024/02/08 10:17:28;;;;;;;23.48;4.97;;;;;;;-146.27;83.68;44975.28;5069998;28;20024;-72
2024/02/08 10:23:00;;;;;;;20.42;4.20;;;;;;;-146.27;83.09;45023.03;5069409;28;20097;-73
2024/02/08 10:28:21;;;;;;;20.40;3.88;;;;;;;-146.27;82.89;45007.13;5069094;28;20035;-72
2024/02/08 10:30:54;;;;;;;17.30;3.78;;;;;;;-146.27;82.83;45036.97;5068865;28;20028;-71
2024/02/08 10:33:24;;;;;;;9.75;3.30;;;;;;;-146.27;82.92;45056.88;5073120;28;20033;-71
2024/02/08 10:35:53;;;;;;;13.13;4.03;;;;;;;-146.27;82.77;44995.19;5073150;28;20438;-71
2024/02/08 10:38:55;;;;;;;11.52;3.75;;;;;;;-146.27;82.95;45033.00;5071591;28;20016;-71
2024/02/08 10:41:19;;;;;;;20.92;4.07;;;;;;;-146.27;82.67;45100.66;5073269;28;20040;-71
2024/02/08 10:43:52;;;;;;;8.27;3.95;;;;;;;-146.27;83.41;45052.91;5071492;28;20111;-72
2024/02/08 10:46:19;;;;;;;13.75;4.60;;;;;;;-146.27;83.45;45060.84;5071826;28;20089;-71
2024/02/08 10:48:48;;;;;;;16.80;4.68;;;;;;;-146.27;83.58;45046.94;5075317;28;20415;-70
2024/02/08 10:51:25;;;;;;;17.70;4.93;;;;;;;-146.27;83.42;45064.84;5092383;28;20408;-70
2024/02/08 10:54:05;;;;;;;16.15;4.35;;;;;;;-146.27;83.25;45068.81;5075071;28;20025;-70
2024/02/08 10:56:40;;;;;;;14.43;4.60;;;;;;;-146.27;83.58;45046.94;5073225;28;20032;-70
2024/02/08 11:01:39;;;;;;;15.45;4.90;;;;;;;-146.27;84.04;44999.16;5072275;28;20036;-71
2024/02/08 11:04:18;;;;;;;20.48;5.00;;;;;;;-146.27;84.21;44999.16;5072148;28;20032;-71
2024/02/08 11:07:06;;;;;;;15.52;5.00;;;;;;;-146.27;84.05;45042.94;5072271;28;20021;-72
2024/02/08 11:09:33;;;;;;;9.48;4.55;;;;;;;-146.27;84.35;44981.25;5073988;28;20108;-72
2024/02/08 11:12:06;;;;;;;16.27;5.70;;;;;;;-146.27;84.25;45011.09;5071428;28;20028;-71
2024/02/08 11:14:40;;;;;;;18.65;6.05;;;;;;;-146.27;84.07;44995.19;5066740;28;20032;-71
2024/02/08 11:17:19;;;;;;;17.77;5.35;;;;;;;-146.27;84.48;44963.34;5080767;28;20046;-73
2024/02/08 11:19:49;;;;;;;20.52;4.90;;;;;;;-146.27;84.21;44997.16;5071952;28;20611;-72
2024/02/08 11:22:34;;;;;;;17.55;5.10;;;;;;;-146.27;84.53;45015.09;5071762;28;20021;-71
2024/02/08 11:25:18;;;;;;;20.02;5.57;;;;;;;-146.27;84.46;44979.25;5073863;28;20029;-71
2024/02/08 11:27:48;;;;;;;20.27;5.65;;;;;;;-146.27;84.68;44971.31;5072669;28;20040;-71
2024/02/08 11:30:32;;;;;;;13.65;5.13;;;;;;;-146.27;84.70;44929.50;5077497;28;20064;-73
2024/02/08 11:33:03;;;;;;;26.10;6.80;;;;;;;-146.27;84.83;44947.41;5056779;28;20025;-71
2024/02/08 11:35:35;;;;;;;23.50;6.22;;;;;;;-146.27;84.43;44979.25;5078744;28;20051;-73
2024/02/08 11:38:17;;;;;;;14.77;5.55;;;;;;;-146.27;84.46;44995.19;5071424;28;20024;-73
2024/02/08 11:40:46;;;;;;;22.98;5.90;;;;;;;-146.27;84.53;44969.31;5071526;28;20055;-73
2024/02/08 11:43:23;;;;;;;14.70;5.57;;;;;;;-146.27;84.68;44997.16;5069226;28;20024;-73
2024/02/08 11:45:54;;;;;;;27.10;6.45;;;;;;;-146.27;85.02;45005.13;5058904;28;20028;-72
2024/02/08 11:48:29;;;;;;;13.43;5.32;;;;;;;-146.27;85.04;44979.25;5071679;28;20033;-72
2024/02/08 11:50:58;;;;;;;25.30;6.75;;;;;;;-146.27;84.93;44971.31;5070264;28;20032;-69
2024/02/08 11:53:47;;;;;;;17.83;5.47;;;;;;;-146.27;85.69;44949.41;5069468;28;20032;-70
2024/02/08 11:56:20;;;;;;;23.95;6.05;;;;;;;-146.27;85.50;44923.53;5070410;28;20479;-70
2024/02/08 11:58:48;;;;;;;14.88;5.95;;;;;;;-146.27;85.35;44943.44;5068909;28;20029;-70
2024/02/08 12:01:14;;;;;;;18.60;6.25;;;;;;;-146.27;85.13;44927.53;5068570;28;20031;-70
2024/02/08 12:03:44;;;;;;;17.95;5.40;;;;;;;-146.27;85.78;44923.53;5068343;28;20025;-68
2024/02/08 12:06:21;;;;;;;13.15;6.10;;;;;;;-146.27;86.04;44895.69;5092755;28;20027;-71
2024/02/08 12:08:57;;;;;;;22.50;7.35;;;;;;;-146.27;86.04;44911.59;5078978;28;20085;-71
2024/02/08 12:11:24;;;;;;;18.00;5.97;;;;;;;-146.27;85.91;44913.59;5071315;28;20091;-69
2024/02/08 12:13:53;;;;;;;15.55;6.32;;;;;;;-146.27;85.63;44895.69;5070785;28;20107;-69
2024/02/08 12:16:18;;;;;;;14.75;5.57;;;;;;;-146.27;85.86;44903.66;5071232;28;20032;-69
2024/02/08 12:18:44;;;;;;;15.23;5.82;;;;;;;-146.27;85.92;44907.63;5069851;28;20468;-70
2024/02/08 12:21:17;;;;;;;18.55;5.90;;;;;;;-146.27;85.94;44897.66;5070620;28;20066;-71
2024/02/08 12:23:43;;;;;;;18.55;5.55;;;;;;;-146.27;85.70;44919.56;5087818;28;20486;-70
2024/02/08 12:26:12;;;;;;;16.08;5.13;;;;;;;-146.27;85.66;44899.66;5052636;28;20025;-71
2024/02/08 12:28:40;;;;;;;15.48;6.10;;;;;;;-146.27;86.03;44879.75;5067336;28;20115;-72
2024/02/08 12:31:16;;;;;;;14.27;5.53;;;;;;;-146.27;86.59;44881.75;5069023;28;20419;-71
2024/02/08 12:33:45;;;;;;;12.38;5.53;;;;;;;-146.27;86.07;44883.75;5071261;28;20109;-69
2024/02/08 12:36:20;;;;;;;18.40;5.72;;;;;;;-146.27;86.21;44919.56;5087313;28;20559;-70
2024/02/08 12:38:50;;;;;;;11.55;5.07;;;;;;;-146.27;86.04;44901.66;5076021;28;20070;-69
2024/02/08 12:41:16;;;;;;;21.35;5.97;;;;;;;-146.27;86.74;44915.59;5069969;28;20035;-69
2024/02/08 12:43:46;;;;;;;20.85;5.95;;;;;;;-146.27;86.46;44871.81;5079564;28;20047;-70
2024/02/08 12:46:15;;;;;;;21.55;6.07;;;;;;;-146.27;86.70;44867.81;5089527;28;20086;-71
2024/02/08 12:48:40;;;;;;;14.27;5.95;;;;;;;-146.27;86.13;44845.94;5070715;28;20042;-72
2024/02/08 12:51:13;;;;;;;16.13;5.10;;;;;;;-146.27;86.34;44816.09;5070202;28;20047;-70
2024/02/08 12:53:39;;;;;;;13.70;4.70;;;;;;;-146.27;86.92;44839.97;5070503;28;20392;-71
2024/02/08 12:56:10;;;;;;;15.18;5.38;;;;;;;-146.27;86.81;44837.97;5070162;28;20512;-71
2024/02/08 12:58:36;;;;;;;19.98;4.45;;;;;;;-146.27;86.63;44875.78;5050959;28;20039;-72
2024/02/08 13:01:04;;;;;;;18.52;5.47;;;;;;;-146.27;86.65;44865.84;5070034;28;20028;-71
2024/02/08 13:03:37;;;;;;;13.45;5.20;;;;;;;-146.27;87.00;44921.56;5091213;28;20436;-71
2024/02/08 13:06:11;;;;;;;13.43;4.85;;;;;;;-146.27;87.11;44843.94;5079518;28;20471;-71
2024/02/08 13:08:37;;;;;;;11.02;4.53;;;;;;;-146.27;87.24;44887.72;5072872;28;20036;-70
2024/02/08 13:11:02;;;;;;;15.38;5.68;;;;;;;-146.27;87.13;44841.94;5070756;28;20380;-70
2024/02/08 13:13:28;;;;;;;19.20;6.22;;;;;;;-146.27;87.43;44834.00;5070715;28;20339;-72
2024/02/08 13:16:01;;;;;;;21.70;6.38;;;;;;;-146.27;87.57;44826.03;5068945;28;20484;-71
2024/02/08 13:18:29;;;;;;;17.77;6.28;;;;;;;-146.27;88.37;44806.13;5068818;28;20384;-71
2024/02/08 13:20:58;;;;;;;15.75;6.45;;;;;;;-146.27;87.92;44776.28;5070700;28;20024;-71
2024/02/08 13:23:24;;;;;;;18.38;7.35;;;;;;;-146.27;87.94;44756.38;5070658;28;20369;-71
2024/02/08 13:25:54;;;;;;;18.73;7.28;;;;;;;-146.27;87.71;44748.44;5069422;28;20023;-71
2024/02/08 13:28:26;;;;;;;29.15;7.25;;;;;;;-146.27;88.14;44784.25;5076509;28;20036;-72
2024/02/08 13:30:56;;;;;;;21.50;7.57;;;;;;;-146.27;88.21;44722.56;5070461;28;20024;-72